sensor_id;sensor_type;location;lat;lon;timestamp;temperature;humidity
41592;DHT22;28026;48.562;14.440;2023-05-10T00:01:06;9.90;99.90
41592;DHT22;28026;48.562;14.440;2023-05-10T00:03:37;9.90;99.90
41592;DHT22;28026;48.562;14.440;2023-05-10T00:06:08;9.90;99.90
41592;DHT22;28026;48.562;14.440;2023-05-10T00:08:39;9.90;99.90
41592;DHT22;28026;48.562;14.440;2023-05-10T00:11:10;9.90;99.90
41592;DHT22;28026;48.562;14.440;2023-05-10T00:13:40;9.80;99.90
41592;DHT22;28026;48.562;14.440;2023-05-10T00:16:11;9.80;99.90
41592;DHT22;28026;48.562;14.440;2023-05-10T00:18:43;9.80;99.90
41592;DHT22;28026;48.562;14.440;2023-05-10T00:21:14;9.80;99.90
41592;DHT22;28026;48.562;14.440;2023-05-10T00:23:45;9.70;99.90
41592;DHT22;28026;48.562;14.440;2023-05-10T00:26:15;9.70;99.90
41592;DHT22;28026;48.562;14.440;2023-05-10T00:28:47;9.70;99.90
41592;DHT22;28026;48.562;14.440;2023-05-10T00:31:17;9.60;99.90
41592;DHT22;28026;48.562;14.440;2023-05-10T00:33:48;9.60;99.90
41592;DHT22;28026;48.562;14.440;2023-05-10T00:36:19;9.60;99.90
41592;DHT22;28026;48.562;14.440;2023-05-10T00:38:51;9.50;99.90
41592;DHT22;28026;48.562;14.440;2023-05-10T00:41:21;9.40;99.90
41592;DHT22;28026;48.562;14.440;2023-05-10T00:43:52;9.50;99.90
41592;DHT22;28026;48.562;14.440;2023-05-10T00:46:23;9.50;99.90
41592;DHT22;28026;48.562;14.440;2023-05-10T00:48:56;9.50;99.90
41592;DHT22;28026;48.562;14.440;2023-05-10T00:51:27;9.60;99.90
41592;DHT22;28026;48.562;14.440;2023-05-10T00:53:58;9.50;99.90
41592;DHT22;28026;48.562;14.440;2023-05-10T00:56:29;9.40;99.90
41592;DHT22;28026;48.562;14.440;2023-05-10T00:59:00;9.50;99.90
41592;DHT22;28026;48.562;14.440;2023-05-10T01:01:31;9.40;99.90
41592;DHT22;28026;48.562;14.440;2023-05-10T01:04:02;9.40;99.90
41592;DHT22;28026;48.562;14.440;2023-05-10T01:06:34;9.40;99.90
41592;DHT22;28026;48.562;14.440;2023-05-10T01:09:05;9.40;99.90
41592;DHT22;28026;48.562;14.440;2023-05-10T01:11:37;9.30;99.90
41592;DHT22;28026;48.562;14.440;2023-05-10T01:14:10;9.30;99.90
41592;DHT22;28026;48.562;14.440;2023-05-10T01:16:41;9.20;99.90
41592;DHT22;28026;48.562;14.440;2023-05-10T01:19:25;9.20;99.90
41592;DHT22;28026;48.562;14.440;2023-05-10T01:35:10;9.10;99.90
41592;DHT22;28026;48.562;14.440;2023-05-10T01:37:58;9.10;99.90
41592;DHT22;28026;48.562;14.440;2023-05-10T01:43:30;9.10;99.90
41592;DHT22;28026;48.562;14.440;2023-05-10T01:46:14;9.10;99.90
41592;DHT22;28026;48.562;14.440;2023-05-10T01:48:54;9.10;99.90
41592;DHT22;28026;48.562;14.440;2023-05-10T01:51:31;9.10;99.90
41592;DHT22;28026;48.562;14.440;2023-05-10T01:54:12;9.00;99.90
41592;DHT22;28026;48.562;14.440;2023-05-10T01:56:47;8.90;99.90
41592;DHT22;28026;48.562;14.440;2023-05-10T01:59:29;8.70;99.90
41592;DHT22;28026;48.562;14.440;2023-05-10T02:02:07;8.50;99.90
41592;DHT22;28026;48.562;14.440;2023-05-10T02:04:42;8.50;99.90
41592;DHT22;28026;48.562;14.440;2023-05-10T02:07:15;8.20;99.90
41592;DHT22;28026;48.562;14.440;2023-05-10T02:09:47;8.00;99.90
41592;DHT22;28026;48.562;14.440;2023-05-10T02:12:18;8.10;99.90
41592;DHT22;28026;48.562;14.440;2023-05-10T02:14:51;8.10;99.90
41592;DHT22;28026;48.562;14.440;2023-05-10T02:17:24;8.30;99.90
41592;DHT22;28026;48.562;14.440;2023-05-10T02:19:56;8.30;99.90
41592;DHT22;28026;48.562;14.440;2023-05-10T02:22:29;8.40;99.90
41592;DHT22;28026;48.562;14.440;2023-05-10T02:25:03;8.50;99.90
41592;DHT22;28026;48.562;14.440;2023-05-10T02:27:34;8.10;99.90
41592;DHT22;28026;48.562;14.440;2023-05-10T02:30:07;7.20;99.90
41592;DHT22;28026;48.562;14.440;2023-05-10T02:32:40;7.30;99.90
41592;DHT22;28026;48.562;14.440;2023-05-10T02:35:13;7.30;99.90
41592;DHT22;28026;48.562;14.440;2023-05-10T02:37:46;7.50;99.90
41592;DHT22;28026;48.562;14.440;2023-05-10T02:40:18;7.50;99.90
41592;DHT22;28026;48.562;14.440;2023-05-10T02:42:54;7.70;99.90
41592;DHT22;28026;48.562;14.440;2023-05-10T02:45:27;7.10;99.90
41592;DHT22;28026;48.562;14.440;2023-05-10T02:48:01;6.40;99.90
41592;DHT22;28026;48.562;14.440;2023-05-10T02:50:33;6.70;99.90
41592;DHT22;28026;48.562;14.440;2023-05-10T02:53:09;6.90;99.90
41592;DHT22;28026;48.562;14.440;2023-05-10T02:55:46;7.20;99.90
41592;DHT22;28026;48.562;14.440;2023-05-10T02:58:23;7.30;99.90
41592;DHT22;28026;48.562;14.440;2023-05-10T03:00:53;7.50;99.90
41592;DHT22;28026;48.562;14.440;2023-05-10T03:03:24;7.50;99.90
41592;DHT22;28026;48.562;14.440;2023-05-10T03:05:55;7.60;99.90
41592;DHT22;28026;48.562;14.440;2023-05-10T03:08:26;7.60;99.90
41592;DHT22;28026;48.562;14.440;2023-05-10T03:17:55;7.50;99.90
41592;DHT22;28026;48.562;14.440;2023-05-10T03:23:22;7.30;99.90
41592;DHT22;28026;48.562;14.440;2023-05-10T03:26:15;7.40;99.90
41592;DHT22;28026;48.562;14.440;2023-05-10T03:28:53;7.00;99.90
41592;DHT22;28026;48.562;14.440;2023-05-10T03:31:26;7.00;99.90
41592;DHT22;28026;48.562;14.440;2023-05-10T03:33:57;7.20;99.90
41592;DHT22;28026;48.562;14.440;2023-05-10T03:36:28;7.30;99.90
41592;DHT22;28026;48.562;14.440;2023-05-10T03:38:59;7.40;99.90
41592;DHT22;28026;48.562;14.440;2023-05-10T03:41:30;7.60;99.90
41592;DHT22;28026;48.562;14.440;2023-05-10T03:44:00;7.70;99.90
41592;DHT22;28026;48.562;14.440;2023-05-10T03:46:31;7.80;99.90
41592;DHT22;28026;48.562;14.440;2023-05-10T03:49:02;7.80;99.90
41592;DHT22;28026;48.562;14.440;2023-05-10T03:51:33;7.90;99.90
41592;DHT22;28026;48.562;14.440;2023-05-10T03:54:04;7.80;99.90
41592;DHT22;28026;48.562;14.440;2023-05-10T03:56:34;6.90;99.90
41592;DHT22;28026;48.562;14.440;2023-05-10T03:59:05;6.70;99.90
41592;DHT22;28026;48.562;14.440;2023-05-10T04:01:37;6.70;99.90
41592;DHT22;28026;48.562;14.440;2023-05-10T04:04:08;7.00;99.90
41592;DHT22;28026;48.562;14.440;2023-05-10T04:06:39;7.30;99.90
41592;DHT22;28026;48.562;14.440;2023-05-10T04:09:10;7.70;99.90
41592;DHT22;28026;48.562;14.440;2023-05-10T04:11:41;8.00;99.90
41592;DHT22;28026;48.562;14.440;2023-05-10T04:14:12;8.30;99.90
41592;DHT22;28026;48.562;14.440;2023-05-10T04:16:42;8.40;99.90
41592;DHT22;28026;48.562;14.440;2023-05-10T04:19:13;8.70;99.90
41592;DHT22;28026;48.562;14.440;2023-05-10T04:21:44;9.00;99.90
41592;DHT22;28026;48.562;14.440;2023-05-10T04:24:15;9.10;99.90
41592;DHT22;28026;48.562;14.440;2023-05-10T04:26:45;9.30;99.90
41592;DHT22;28026;48.562;14.440;2023-05-10T04:29:16;9.50;99.90
41592;DHT22;28026;48.562;14.440;2023-05-10T04:31:47;9.60;99.90
41592;DHT22;28026;48.562;14.440;2023-05-10T04:34:20;9.60;99.90
41592;DHT22;28026;48.562;14.440;2023-05-10T04:36:51;9.00;99.90
41592;DHT22;28026;48.562;14.440;2023-05-10T04:39:22;8.90;99.90
41592;DHT22;28026;48.562;14.440;2023-05-10T04:41:53;9.20;99.90
41592;DHT22;28026;48.562;14.440;2023-05-10T04:44:23;9.60;99.90
41592;DHT22;28026;48.562;14.440;2023-05-10T04:46:54;9.80;99.90
41592;DHT22;28026;48.562;14.440;2023-05-10T04:49:25;9.80;99.90
41592;DHT22;28026;48.562;14.440;2023-05-10T04:51:56;9.50;99.90
41592;DHT22;28026;48.562;14.440;2023-05-10T04:54:27;9.30;99.90
41592;DHT22;28026;48.562;14.440;2023-05-10T04:56:57;9.30;99.90
41592;DHT22;28026;48.562;14.440;2023-05-10T04:59:28;9.20;99.90
41592;DHT22;28026;48.562;14.440;2023-05-10T05:01:59;9.30;99.90
41592;DHT22;28026;48.562;14.440;2023-05-10T05:04:30;9.40;99.90
41592;DHT22;28026;48.562;14.440;2023-05-10T05:07:01;9.30;99.90
41592;DHT22;28026;48.562;14.440;2023-05-10T05:09:32;9.50;99.90
41592;DHT22;28026;48.562;14.440;2023-05-10T05:12:03;9.70;99.90
41592;DHT22;28026;48.562;14.440;2023-05-10T05:14:34;9.70;99.90
41592;DHT22;28026;48.562;14.440;2023-05-10T05:17:05;9.90;99.90
41592;DHT22;28026;48.562;14.440;2023-05-10T05:19:36;10.10;99.90
41592;DHT22;28026;48.562;14.440;2023-05-10T05:22:07;10.60;99.90
41592;DHT22;28026;48.562;14.440;2023-05-10T05:24:38;10.40;99.90
41592;DHT22;28026;48.562;14.440;2023-05-10T05:27:09;10.60;99.90
41592;DHT22;28026;48.562;14.440;2023-05-10T05:29:40;10.60;99.90
41592;DHT22;28026;48.562;14.440;2023-05-10T05:32:11;10.60;99.90
41592;DHT22;28026;48.562;14.440;2023-05-10T05:34:42;10.80;99.90
41592;DHT22;28026;48.562;14.440;2023-05-10T05:37:16;11.10;99.90
41592;DHT22;28026;48.562;14.440;2023-05-10T05:39:49;11.20;99.90
41592;DHT22;28026;48.562;14.440;2023-05-10T05:42:20;11.40;99.90
41592;DHT22;28026;48.562;14.440;2023-05-10T05:44:51;11.60;99.90
41592;DHT22;28026;48.562;14.440;2023-05-10T05:47:22;11.50;99.90
41592;DHT22;28026;48.562;14.440;2023-05-10T05:49:53;11.50;99.90
41592;DHT22;28026;48.562;14.440;2023-05-10T05:52:23;11.70;99.90
41592;DHT22;28026;48.562;14.440;2023-05-10T05:54:54;11.60;99.90
41592;DHT22;28026;48.562;14.440;2023-05-10T05:57:25;11.60;99.90
41592;DHT22;28026;48.562;14.440;2023-05-10T05:59:56;12.00;99.90
41592;DHT22;28026;48.562;14.440;2023-05-10T06:02:27;12.20;99.90
41592;DHT22;28026;48.562;14.440;2023-05-10T06:04:58;12.00;99.90
41592;DHT22;28026;48.562;14.440;2023-05-10T06:07:29;11.80;99.90
41592;DHT22;28026;48.562;14.440;2023-05-10T06:09:59;11.80;99.90
41592;DHT22;28026;48.562;14.440;2023-05-10T06:12:31;11.90;99.90
41592;DHT22;28026;48.562;14.440;2023-05-10T06:15:02;11.90;99.90
41592;DHT22;28026;48.562;14.440;2023-05-10T06:17:33;12.00;99.90
41592;DHT22;28026;48.562;14.440;2023-05-10T06:20:04;11.80;99.90
41592;DHT22;28026;48.562;14.440;2023-05-10T06:22:36;11.70;99.90
41592;DHT22;28026;48.562;14.440;2023-05-10T06:25:07;11.70;99.90
41592;DHT22;28026;48.562;14.440;2023-05-10T06:27:39;11.90;99.90
41592;DHT22;28026;48.562;14.440;2023-05-10T06:30:10;11.80;99.90
41592;DHT22;28026;48.562;14.440;2023-05-10T06:32:43;11.80;99.90
41592;DHT22;28026;48.562;14.440;2023-05-10T06:35:15;11.90;99.90
41592;DHT22;28026;48.562;14.440;2023-05-10T06:37:45;12.00;99.90
41592;DHT22;28026;48.562;14.440;2023-05-10T06:40:17;12.10;99.90
41592;DHT22;28026;48.562;14.440;2023-05-10T06:42:48;11.90;99.90
41592;DHT22;28026;48.562;14.440;2023-05-10T06:45:19;11.90;99.90
41592;DHT22;28026;48.562;14.440;2023-05-10T06:47:50;11.90;99.90
41592;DHT22;28026;48.562;14.440;2023-05-10T06:50:21;11.90;99.90
41592;DHT22;28026;48.562;14.440;2023-05-10T06:52:52;11.60;99.90
41592;DHT22;28026;48.562;14.440;2023-05-10T06:55:23;11.80;99.90
41592;DHT22;28026;48.562;14.440;2023-05-10T06:57:54;11.60;99.90
41592;DHT22;28026;48.562;14.440;2023-05-10T07:00:24;11.80;99.90
41592;DHT22;28026;48.562;14.440;2023-05-10T07:02:56;11.90;99.90
41592;DHT22;28026;48.562;14.440;2023-05-10T07:05:26;11.90;99.90
41592;DHT22;28026;48.562;14.440;2023-05-10T07:07:58;11.80;99.90
41592;DHT22;28026;48.562;14.440;2023-05-10T07:10:29;11.90;99.90
41592;DHT22;28026;48.562;14.440;2023-05-10T07:13:00;11.70;99.90
41592;DHT22;28026;48.562;14.440;2023-05-10T07:15:31;11.70;99.90
41592;DHT22;28026;48.562;14.440;2023-05-10T07:18:02;11.70;99.90
41592;DHT22;28026;48.562;14.440;2023-05-10T07:20:34;11.50;99.90
41592;DHT22;28026;48.562;14.440;2023-05-10T07:23:05;11.70;99.90
41592;DHT22;28026;48.562;14.440;2023-05-10T07:25:36;11.70;99.90
41592;DHT22;28026;48.562;14.440;2023-05-10T07:28:06;11.70;99.90
41592;DHT22;28026;48.562;14.440;2023-05-10T07:30:37;11.60;99.90
41592;DHT22;28026;48.562;14.440;2023-05-10T07:33:08;11.90;99.90
41592;DHT22;28026;48.562;14.440;2023-05-10T07:35:40;11.90;99.90
41592;DHT22;28026;48.562;14.440;2023-05-10T07:38:11;12.00;99.90
41592;DHT22;28026;48.562;14.440;2023-05-10T07:40:42;11.90;99.90
41592;DHT22;28026;48.562;14.440;2023-05-10T07:43:12;11.80;99.90
41592;DHT22;28026;48.562;14.440;2023-05-10T07:45:43;11.70;99.90
41592;DHT22;28026;48.562;14.440;2023-05-10T07:48:14;11.70;99.90
41592;DHT22;28026;48.562;14.440;2023-05-10T07:50:45;11.50;99.90
41592;DHT22;28026;48.562;14.440;2023-05-10T07:53:15;11.40;99.90
41592;DHT22;28026;48.562;14.440;2023-05-10T07:55:50;11.30;99.90
41592;DHT22;28026;48.562;14.440;2023-05-10T07:58:24;11.40;99.90
41592;DHT22;28026;48.562;14.440;2023-05-10T08:00:55;11.20;99.90
41592;DHT22;28026;48.562;14.440;2023-05-10T08:03:26;11.00;99.90
41592;DHT22;28026;48.562;14.440;2023-05-10T08:05:57;10.90;99.90
41592;DHT22;28026;48.562;14.440;2023-05-10T08:08:28;10.80;99.90
41592;DHT22;28026;48.562;14.440;2023-05-10T08:10:59;10.60;99.90
41592;DHT22;28026;48.562;14.440;2023-05-10T08:13:29;10.50;99.90
41592;DHT22;28026;48.562;14.440;2023-05-10T08:16:01;10.40;99.90
41592;DHT22;28026;48.562;14.440;2023-05-10T08:18:32;10.40;99.90
41592;DHT22;28026;48.562;14.440;2023-05-10T08:21:03;10.40;99.90
41592;DHT22;28026;48.562;14.440;2023-05-10T08:23:34;10.40;99.90
41592;DHT22;28026;48.562;14.440;2023-05-10T08:26:05;10.40;99.90
41592;DHT22;28026;48.562;14.440;2023-05-10T08:28:36;10.60;99.90
41592;DHT22;28026;48.562;14.440;2023-05-10T08:31:07;10.80;99.90
41592;DHT22;28026;48.562;14.440;2023-05-10T08:33:38;11.00;99.90
41592;DHT22;28026;48.562;14.440;2023-05-10T08:36:09;11.00;99.90
41592;DHT22;28026;48.562;14.440;2023-05-10T08:38:40;11.10;99.90
41592;DHT22;28026;48.562;14.440;2023-05-10T08:41:10;11.30;99.90
41592;DHT22;28026;48.562;14.440;2023-05-10T08:43:41;11.60;99.90
41592;DHT22;28026;48.562;14.440;2023-05-10T08:46:17;11.40;99.90
41592;DHT22;28026;48.562;14.440;2023-05-10T08:48:50;11.40;99.90
41592;DHT22;28026;48.562;14.440;2023-05-10T08:51:23;11.40;99.90
41592;DHT22;28026;48.562;14.440;2023-05-10T08:53:58;11.30;99.90
41592;DHT22;28026;48.562;14.440;2023-05-10T08:56:30;11.20;99.90
41592;DHT22;28026;48.562;14.440;2023-05-10T08:59:01;11.20;99.90
41592;DHT22;28026;48.562;14.440;2023-05-10T09:01:32;11.40;99.90
41592;DHT22;28026;48.562;14.440;2023-05-10T09:04:06;11.30;99.90
41592;DHT22;28026;48.562;14.440;2023-05-10T09:06:37;11.30;99.90
41592;DHT22;28026;48.562;14.440;2023-05-10T09:09:08;11.30;99.90
41592;DHT22;28026;48.562;14.440;2023-05-10T09:11:39;11.40;99.90
41592;DHT22;28026;48.562;14.440;2023-05-10T09:14:10;11.40;99.90
41592;DHT22;28026;48.562;14.440;2023-05-10T09:16:42;11.60;99.90
41592;DHT22;28026;48.562;14.440;2023-05-10T09:19:14;11.70;99.90
41592;DHT22;28026;48.562;14.440;2023-05-10T09:21:45;11.50;99.90
41592;DHT22;28026;48.562;14.440;2023-05-10T09:24:16;11.50;99.90
41592;DHT22;28026;48.562;14.440;2023-05-10T09:26:47;11.50;99.90
41592;DHT22;28026;48.562;14.440;2023-05-10T09:29:19;11.70;99.90
41592;DHT22;28026;48.562;14.440;2023-05-10T09:31:50;11.60;99.90
41592;DHT22;28026;48.562;14.440;2023-05-10T09:34:31;11.70;99.90
41592;DHT22;28026;48.562;14.440;2023-05-10T09:37:02;11.80;99.90
41592;DHT22;28026;48.562;14.440;2023-05-10T09:39:37;12.00;99.90
41592;DHT22;28026;48.562;14.440;2023-05-10T09:42:09;11.90;99.90
41592;DHT22;28026;48.562;14.440;2023-05-10T09:44:40;11.60;99.90
41592;DHT22;28026;48.562;14.440;2023-05-10T09:47:16;11.50;99.90
41592;DHT22;28026;48.562;14.440;2023-05-10T09:49:49;11.70;99.90
41592;DHT22;28026;48.562;14.440;2023-05-10T09:52:21;11.60;99.90
41592;DHT22;28026;48.562;14.440;2023-05-10T09:54:52;11.50;99.90
41592;DHT22;28026;48.562;14.440;2023-05-10T09:57:24;11.70;99.90
41592;DHT22;28026;48.562;14.440;2023-05-10T09:59:56;11.60;99.90
41592;DHT22;28026;48.562;14.440;2023-05-10T10:02:28;11.60;99.90
41592;DHT22;28026;48.562;14.440;2023-05-10T10:05:00;11.60;99.90
41592;DHT22;28026;48.562;14.440;2023-05-10T10:07:33;11.40;99.90
41592;DHT22;28026;48.562;14.440;2023-05-10T10:10:05;11.30;99.90
41592;DHT22;28026;48.562;14.440;2023-05-10T10:12:41;11.30;99.90
41592;DHT22;28026;48.562;14.440;2023-05-10T10:15:12;11.40;99.90
41592;DHT22;28026;48.562;14.440;2023-05-10T10:17:43;11.40;99.90
41592;DHT22;28026;48.562;14.440;2023-05-10T10:20:16;11.20;99.90
41592;DHT22;28026;48.562;14.440;2023-05-10T10:22:48;11.30;99.90
41592;DHT22;28026;48.562;14.440;2023-05-10T10:25:20;11.10;99.90
41592;DHT22;28026;48.562;14.440;2023-05-10T10:28:02;11.10;99.90
41592;DHT22;28026;48.562;14.440;2023-05-10T10:30:48;11.30;99.90
41592;DHT22;28026;48.562;14.440;2023-05-10T10:35:54;11.50;99.90
41592;DHT22;28026;48.562;14.440;2023-05-10T10:41:28;11.40;99.90
41592;DHT22;28026;48.562;14.440;2023-05-10T10:52:35;11.60;99.90
41592;DHT22;28026;48.562;14.440;2023-05-10T10:55:06;11.60;99.90
41592;DHT22;28026;48.562;14.440;2023-05-10T10:57:51;11.70;99.90
41592;DHT22;28026;48.562;14.440;2023-05-10T11:00:39;11.70;99.90
41592;DHT22;28026;48.562;14.440;2023-05-10T11:03:11;11.80;99.90
41592;DHT22;28026;48.562;14.440;2023-05-10T11:05:45;11.90;99.90
41592;DHT22;28026;48.562;14.440;2023-05-10T11:11:03;11.80;99.90
41592;DHT22;28026;48.562;14.440;2023-05-10T11:13:46;11.90;99.90
41592;DHT22;28026;48.562;14.440;2023-05-10T11:16:19;11.50;99.90
41592;DHT22;28026;48.562;14.440;2023-05-10T11:18:59;11.40;99.90
41592;DHT22;28026;48.562;14.440;2023-05-10T11:21:49;11.50;99.90
41592;DHT22;28026;48.562;14.440;2023-05-10T11:24:49;11.80;99.90
41592;DHT22;28026;48.562;14.440;2023-05-10T11:27:28;11.80;99.90
41592;DHT22;28026;48.562;14.440;2023-05-10T11:29:59;11.80;99.90
41592;DHT22;28026;48.562;14.440;2023-05-10T11:32:30;11.80;99.90
41592;DHT22;28026;48.562;14.440;2023-05-10T11:35:06;12.00;99.90
41592;DHT22;28026;48.562;14.440;2023-05-10T11:37:38;12.00;99.90
41592;DHT22;28026;48.562;14.440;2023-05-10T11:40:11;12.00;99.90
41592;DHT22;28026;48.562;14.440;2023-05-10T11:42:42;11.80;99.90
41592;DHT22;28026;48.562;14.440;2023-05-10T11:45:13;11.90;99.90
41592;DHT22;28026;48.562;14.440;2023-05-10T11:47:44;12.00;99.90
41592;DHT22;28026;48.562;14.440;2023-05-10T11:50:15;12.20;99.90
41592;DHT22;28026;48.562;14.440;2023-05-10T11:52:50;12.50;99.90
41592;DHT22;28026;48.562;14.440;2023-05-10T11:55:25;12.40;99.90
41592;DHT22;28026;48.562;14.440;2023-05-10T11:57:59;12.50;99.90
41592;DHT22;28026;48.562;14.440;2023-05-10T12:00:32;12.30;99.90
41592;DHT22;28026;48.562;14.440;2023-05-10T12:03:03;12.30;99.90
41592;DHT22;28026;48.562;14.440;2023-05-10T12:05:34;12.30;99.90
41592;DHT22;28026;48.562;14.440;2023-05-10T12:08:13;12.40;99.90
41592;DHT22;28026;48.562;14.440;2023-05-10T12:11:07;12.30;99.90
41592;DHT22;28026;48.562;14.440;2023-05-10T12:13:43;12.30;99.90
41592;DHT22;28026;48.562;14.440;2023-05-10T12:16:21;12.40;99.90
41592;DHT22;28026;48.562;14.440;2023-05-10T12:18:58;12.40;99.90
41592;DHT22;28026;48.562;14.440;2023-05-10T12:21:30;12.40;99.90
41592;DHT22;28026;48.562;14.440;2023-05-10T12:24:02;12.20;99.90
41592;DHT22;28026;48.562;14.440;2023-05-10T12:26:34;12.40;99.90
41592;DHT22;28026;48.562;14.440;2023-05-10T12:29:15;12.40;99.90
41592;DHT22;28026;48.562;14.440;2023-05-10T12:31:49;12.70;99.90
41592;DHT22;28026;48.562;14.440;2023-05-10T12:34:32;12.70;99.90
41592;DHT22;28026;48.562;14.440;2023-05-10T12:37:06;12.70;99.90
41592;DHT22;28026;48.562;14.440;2023-05-10T12:39:40;12.50;99.90
41592;DHT22;28026;48.562;14.440;2023-05-10T12:42:13;12.50;99.90
41592;DHT22;28026;48.562;14.440;2023-05-10T12:44:43;12.40;99.90
41592;DHT22;28026;48.562;14.440;2023-05-10T12:47:14;12.60;99.90
41592;DHT22;28026;48.562;14.440;2023-05-10T12:49:45;12.80;99.90
41592;DHT22;28026;48.562;14.440;2023-05-10T12:52:16;12.80;99.90
41592;DHT22;28026;48.562;14.440;2023-05-10T12:54:47;12.90;99.90
41592;DHT22;28026;48.562;14.440;2023-05-10T12:57:18;12.90;99.90
41592;DHT22;28026;48.562;14.440;2023-05-10T12:59:50;12.80;99.90
41592;DHT22;28026;48.562;14.440;2023-05-10T13:02:21;12.80;99.90
41592;DHT22;28026;48.562;14.440;2023-05-10T13:04:53;13.00;99.90
41592;DHT22;28026;48.562;14.440;2023-05-10T13:07:24;13.20;99.90
41592;DHT22;28026;48.562;14.440;2023-05-10T13:09:54;13.00;99.90
41592;DHT22;28026;48.562;14.440;2023-05-10T13:12:25;13.20;99.90
41592;DHT22;28026;48.562;14.440;2023-05-10T13:14:56;13.30;99.90
41592;DHT22;28026;48.562;14.440;2023-05-10T13:17:27;13.20;99.90
41592;DHT22;28026;48.562;14.440;2023-05-10T13:19:58;13.00;99.90
41592;DHT22;28026;48.562;14.440;2023-05-10T13:22:28;12.90;99.90
41592;DHT22;28026;48.562;14.440;2023-05-10T13:25:01;12.90;99.90
41592;DHT22;28026;48.562;14.440;2023-05-10T13:27:32;12.80;99.90
41592;DHT22;28026;48.562;14.440;2023-05-10T13:30:03;12.80;99.90
41592;DHT22;28026;48.562;14.440;2023-05-10T13:32:35;12.90;99.90
41592;DHT22;28026;48.562;14.440;2023-05-10T13:35:06;13.00;99.90
41592;DHT22;28026;48.562;14.440;2023-05-10T13:37:38;12.70;99.90
41592;DHT22;28026;48.562;14.440;2023-05-10T13:40:08;12.70;99.90
41592;DHT22;28026;48.562;14.440;2023-05-10T13:42:40;12.70;99.90
41592;DHT22;28026;48.562;14.440;2023-05-10T13:45:12;12.70;99.90
41592;DHT22;28026;48.562;14.440;2023-05-10T13:47:43;12.70;99.90
41592;DHT22;28026;48.562;14.440;2023-05-10T13:50:14;12.70;99.90
41592;DHT22;28026;48.562;14.440;2023-05-10T13:52:45;12.70;99.90
41592;DHT22;28026;48.562;14.440;2023-05-10T13:55:15;12.70;99.90
41592;DHT22;28026;48.562;14.440;2023-05-10T13:57:46;12.60;99.90
41592;DHT22;28026;48.562;14.440;2023-05-10T14:00:17;12.40;99.90
41592;DHT22;28026;48.562;14.440;2023-05-10T14:02:48;12.30;99.90
41592;DHT22;28026;48.562;14.440;2023-05-10T14:05:19;12.20;99.90
41592;DHT22;28026;48.562;14.440;2023-05-10T14:07:50;12.40;99.90
41592;DHT22;28026;48.562;14.440;2023-05-10T14:10:21;12.70;99.90
41592;DHT22;28026;48.562;14.440;2023-05-10T14:12:52;12.90;99.90
41592;DHT22;28026;48.562;14.440;2023-05-10T14:15:23;12.90;99.90
41592;DHT22;28026;48.562;14.440;2023-05-10T14:17:54;13.10;99.90
41592;DHT22;28026;48.562;14.440;2023-05-10T14:20:24;13.20;99.90
41592;DHT22;28026;48.562;14.440;2023-05-10T14:22:55;13.30;99.90
41592;DHT22;28026;48.562;14.440;2023-05-10T14:25:27;13.30;99.90
41592;DHT22;28026;48.562;14.440;2023-05-10T14:27:58;13.30;99.90
41592;DHT22;28026;48.562;14.440;2023-05-10T14:30:29;13.00;99.90
41592;DHT22;28026;48.562;14.440;2023-05-10T14:33:01;12.90;99.90
41592;DHT22;28026;48.562;14.440;2023-05-10T14:35:33;12.60;99.90
41592;DHT22;28026;48.562;14.440;2023-05-10T14:38:03;12.90;99.90
41592;DHT22;28026;48.562;14.440;2023-05-10T14:40:34;13.00;99.90
41592;DHT22;28026;48.562;14.440;2023-05-10T14:43:06;12.90;99.90
41592;DHT22;28026;48.562;14.440;2023-05-10T14:45:36;12.90;99.90
41592;DHT22;28026;48.562;14.440;2023-05-10T14:48:07;13.00;99.90
41592;DHT22;28026;48.562;14.440;2023-05-10T14:50:41;13.10;99.90
41592;DHT22;28026;48.562;14.440;2023-05-10T14:53:12;12.80;99.90
41592;DHT22;28026;48.562;14.440;2023-05-10T14:55:43;12.60;99.90
41592;DHT22;28026;48.562;14.440;2023-05-10T14:58:14;12.50;99.90
41592;DHT22;28026;48.562;14.440;2023-05-10T15:00:45;12.40;99.90
41592;DHT22;28026;48.562;14.440;2023-05-10T15:03:16;12.60;99.90
41592;DHT22;28026;48.562;14.440;2023-05-10T15:05:47;12.50;99.90
41592;DHT22;28026;48.562;14.440;2023-05-10T15:08:18;12.20;99.90
41592;DHT22;28026;48.562;14.440;2023-05-10T15:10:49;11.90;99.90
41592;DHT22;28026;48.562;14.440;2023-05-10T15:13:19;11.90;99.90
41592;DHT22;28026;48.562;14.440;2023-05-10T15:15:50;12.10;99.90
41592;DHT22;28026;48.562;14.440;2023-05-10T15:18:21;12.20;99.90
41592;DHT22;28026;48.562;14.440;2023-05-10T15:20:52;12.40;99.90
41592;DHT22;28026;48.562;14.440;2023-05-10T15:23:23;12.60;99.90
41592;DHT22;28026;48.562;14.440;2023-05-10T15:25:54;12.60;99.90
41592;DHT22;28026;48.562;14.440;2023-05-10T15:28:25;12.50;99.90
41592;DHT22;28026;48.562;14.440;2023-05-10T15:30:56;12.40;99.90
41592;DHT22;28026;48.562;14.440;2023-05-10T15:33:27;12.50;99.90
41592;DHT22;28026;48.562;14.440;2023-05-10T15:35:58;12.30;99.90
41592;DHT22;28026;48.562;14.440;2023-05-10T15:38:29;12.30;99.90
41592;DHT22;28026;48.562;14.440;2023-05-10T15:41:00;12.10;99.90
41592;DHT22;28026;48.562;14.440;2023-05-10T15:43:30;12.10;99.90
41592;DHT22;28026;48.562;14.440;2023-05-10T15:46:01;12.00;99.90
41592;DHT22;28026;48.562;14.440;2023-05-10T15:48:32;12.00;99.90
41592;DHT22;28026;48.562;14.440;2023-05-10T15:51:03;11.90;99.90
41592;DHT22;28026;48.562;14.440;2023-05-10T15:53:34;12.00;99.90
41592;DHT22;28026;48.562;14.440;2023-05-10T15:56:05;11.90;99.90
41592;DHT22;28026;48.562;14.440;2023-05-10T15:58:39;11.80;99.90
41592;DHT22;28026;48.562;14.440;2023-05-10T16:01:11;11.70;99.90
41592;DHT22;28026;48.562;14.440;2023-05-10T16:03:42;11.60;99.90
41592;DHT22;28026;48.562;14.440;2023-05-10T16:06:13;11.70;99.90
41592;DHT22;28026;48.562;14.440;2023-05-10T16:08:43;11.70;99.90
41592;DHT22;28026;48.562;14.440;2023-05-10T16:11:14;11.80;99.90
41592;DHT22;28026;48.562;14.440;2023-05-10T16:13:45;11.70;99.90
41592;DHT22;28026;48.562;14.440;2023-05-10T16:16:16;11.60;99.90
41592;DHT22;28026;48.562;14.440;2023-05-10T16:18:47;11.70;99.90
41592;DHT22;28026;48.562;14.440;2023-05-10T16:21:17;11.70;99.90
41592;DHT22;28026;48.562;14.440;2023-05-10T16:23:48;11.80;99.90
41592;DHT22;28026;48.562;14.440;2023-05-10T16:26:19;11.80;99.90
41592;DHT22;28026;48.562;14.440;2023-05-10T16:28:51;11.80;99.90
41592;DHT22;28026;48.562;14.440;2023-05-10T16:31:21;11.70;99.90
41592;DHT22;28026;48.562;14.440;2023-05-10T16:33:52;11.70;99.90